Time;durP1;ratioP1;P1;durP2;ratioP2;P2;SDS_P1;SDS_P2;PMS_P1;PMS_P2;Temp;Humidity;BMP_temperature;BMP_pressure;BME280_temperature;BME280_humidity;BME280_pressure;Samples;Min_cycle;Max_cycle;Signal;HPM_P1;HPM_P2
2023/02/19 00:00:59;;;;;;;141.27;79.63;;;9.50;99.20;;;;;;6277397;22;20442;-69
2023/02/19 00:03:26;;;;;;;139.37;77.43;;;9.50;99.20;;;;;;6277759;22;20010;-69
2023/02/19 00:05:52;;;;;;;134.37;74.00;;;9.50;99.20;;;;;;6277609;22;19996;-70
2023/02/19 00:08:18;;;;;;;134.77;75.63;;;9.50;99.30;;;;;;6277921;22;20003;-69
2023/02/19 00:10:43;;;;;;;134.55;75.30;;;9.50;99.30;;;;;;6277641;22;19999;-70
2023/02/19 00:13:09;;;;;;;132.97;74.53;;;9.50;99.30;;;;;;6277509;22;20002;-69
2023/02/19 00:15:35;;;;;;;140.13;80.47;;;9.50;99.30;;;;;;6277235;22;20372;-69
2023/02/19 00:18:00;;;;;;;143.68;77.43;;;9.50;99.30;;;;;;6277533;22;20033;-69
2023/02/19 00:20:26;;;;;;;130.97;72.50;;;9.50;99.40;;;;;;6277727;22;20007;-69
2023/02/19 00:22:52;;;;;;;128.77;73.67;;;9.50;99.30;;;;;;6277759;22;20053;-69
2023/02/19 00:25:17;;;;;;;132.00;72.87;;;9.50;99.30;;;;;;6277358;22;19996;-69
2023/02/19 00:27:43;;;;;;;133.87;72.07;;;9.50;99.30;;;;;;6250368;22;20006;-70
2023/02/19 00:30:09;;;;;;;138.37;74.43;;;9.50;99.30;;;;;;6277515;22;20000;-69
2023/02/19 00:32:35;;;;;;;131.33;72.90;;;9.50;99.30;;;;;;6249769;22;20004;-70
2023/02/19 00:35:00;;;;;;;133.07;74.90;;;9.50;99.40;;;;;;6277450;22;20548;-69
2023/02/19 00:37:26;;;;;;;137.27;74.13;;;9.50;99.40;;;;;;6277553;22;20035;-69
2023/02/19 00:39:52;;;;;;;140.13;73.33;;;9.50;99.30;;;;;;6277232;22;20075;-69
2023/02/19 00:42:17;;;;;;;129.20;71.70;;;9.50;99.40;;;;;;6277234;22;20006;-69
2023/02/19 00:44:43;;;;;;;133.27;73.27;;;9.50;99.40;;;;;;6277013;22;20414;-69
2023/02/19 00:47:09;;;;;;;128.50;73.43;;;9.50;99.40;;;;;;6277161;22;20414;-69
2023/02/19 00:49:34;;;;;;;134.73;72.37;;;9.50;99.40;;;;;;6277295;22;20095;-69
2023/02/19 00:52:00;;;;;;;128.05;71.57;;;9.50;99.40;;;;;;6277431;22;20004;-69
2023/02/19 00:54:26;;;;;;;133.43;71.73;;;9.50;99.40;;;;;;6277212;22;20000;-69
2023/02/19 00:56:52;;;;;;;133.23;77.60;;;9.50;99.40;;;;;;6277612;22;20015;-69
2023/02/19 00:59:17;;;;;;;131.17;73.50;;;9.50;99.50;;;;;;6277053;22;20016;-69
2023/02/19 01:01:43;;;;;;;135.73;75.93;;;9.50;99.50;;;;;;6276866;22;20030;-69
2023/02/19 01:04:09;;;;;;;139.23;72.27;;;9.50;99.50;;;;;;6277260;22;19996;-69
2023/02/19 01:06:35;;;;;;;130.63;72.03;;;9.50;99.50;;;;;;6277056;22;20323;-68
2023/02/19 01:09:03;;;;;;;122.73;69.63;;;9.50;99.50;;;;;;6276686;22;20027;-69
2023/02/19 01:11:29;;;;;;;125.63;70.50;;;9.50;99.50;;;;;;6277284;22;20299;-70
2023/02/19 01:13:59;;;;;;;130.87;73.80;;;9.50;99.50;;;;;;6276726;22;20118;-70
2023/02/19 01:16:26;;;;;;;136.87;74.43;;;9.50;99.50;;;;;;6277013;22;20053;-69
2023/02/19 01:18:52;;;;;;;140.40;74.93;;;9.50;99.50;;;;;;6277104;22;20090;-70
2023/02/19 01:21:21;;;;;;;136.80;74.47;;;9.50;99.50;;;;;;6276862;22;20007;-69
2023/02/19 01:23:47;;;;;;;131.23;72.33;;;9.50;99.50;;;;;;6276601;22;20004;-70
2023/02/19 01:26:25;;;;;;;132.97;73.37;;;9.50;99.60;;;;;;6276724;22;20002;-69
2023/02/19 01:28:51;;;;;;;129.60;72.27;;;9.50;99.60;;;;;;6277134;22;20006;-69
2023/02/19 01:31:20;;;;;;;135.37;72.30;;;9.50;99.60;;;;;;6250457;22;20008;-69
2023/02/19 01:33:48;;;;;;;118.57;68.00;;;9.40;99.60;;;;;;6277067;22;20000;-69
2023/02/19 01:36:14;;;;;;;120.03;68.77;;;9.50;99.60;;;;;;6276545;22;20486;-69
2023/02/19 01:38:40;;;;;;;118.13;69.87;;;9.50;99.50;;;;;;6276838;22;20042;-69
2023/02/19 01:41:08;;;;;;;128.73;69.57;;;9.50;99.60;;;;;;6277000;22;19995;-69
2023/02/19 01:43:54;;;;;;;127.03;73.87;;;9.50;99.50;;;;;;6276800;22;20372;-69
2023/02/19 01:46:19;;;;;;;128.27;71.87;;;9.50;99.50;;;;;;6276984;22;19995;-69
2023/02/19 01:48:46;;;;;;;123.47;70.07;;;9.40;99.40;;;;;;6276397;22;19996;-70
2023/02/19 01:51:18;;;;;;;120.13;70.17;;;9.40;99.40;;;;;;6276586;22;20322;-69
2023/02/19 01:53:49;;;;;;;125.73;71.30;;;9.40;99.40;;;;;;6276629;22;20006;-69
2023/02/19 01:56:18;;;;;;;129.50;72.73;;;9.50;99.40;;;;;;6276482;22;20003;-69
2023/02/19 01:58:44;;;;;;;124.20;70.97;;;9.50;99.40;;;;;;6273442;22;20090;-69
2023/02/19 02:01:10;;;;;;;132.63;71.43;;;9.50;99.40;;;;;;6273063;22;20057;-70
2023/02/19 02:03:39;;;;;;;125.83;73.20;;;9.50;99.40;;;;;;6273086;22;20012;-70
2023/02/19 02:06:08;;;;;;;128.20;71.77;;;9.40;99.30;;;;;;6276387;22;20185;-69
2023/02/19 02:11:19;;;;;;;129.57;71.53;;;9.50;99.40;;;;;;6276288;22;20011;-70
2023/02/19 02:13:45;;;;;;;127.13;71.93;;;9.40;99.40;;;;;;6276060;22;20311;-69
2023/02/19 02:16:33;;;;;;;131.03;71.87;;;9.40;99.50;;;;;;6276172;22;20105;-69
2023/02/19 02:19:31;;;;;;;129.70;74.00;;;9.40;99.50;;;;;;6276298;22;20089;-69
2023/02/19 02:22:01;;;;;;;124.50;70.43;;;9.40;99.60;;;;;;6276081;22;20126;-69
2023/02/19 02:25:04;;;;;;;117.53;70.00;;;9.40;99.60;;;;;;6276604;22;20003;-69
2023/02/19 02:27:41;;;;;;;122.20;70.90;;;9.40;99.60;;;;;;6275990;22;20066;-69
2023/02/19 02:30:16;;;;;;;120.40;68.93;;;9.40;99.70;;;;;;6276473;22;20126;-69
2023/02/19 02:32:56;;;;;;;122.17;69.33;;;9.40;99.70;;;;;;6249175;22;20010;-69
2023/02/19 02:35:36;;;;;;;116.47;70.63;;;9.40;99.70;;;;;;6275428;22;20422;-69
2023/02/19 02:38:06;;;;;;;119.50;70.40;;;9.40;99.70;;;;;;6276152;22;20008;-69
2023/02/19 02:40:32;;;;;;;112.40;67.47;;;9.40;99.80;;;;;;6276353;22;20000;-69
2023/02/19 02:42:59;;;;;;;120.80;70.90;;;9.40;99.80;;;;;;6275764;22;20496;-69
2023/02/19 02:45:34;;;;;;;116.93;68.47;;;9.40;99.80;;;;;;6276005;22;20000;-69
2023/02/19 02:48:14;;;;;;;114.13;67.80;;;9.40;99.80;;;;;;6275943;22;20422;-69
2023/02/19 02:50:51;;;;;;;114.50;69.57;;;9.40;99.80;;;;;;6276334;22;20008;-69
2023/02/19 02:56:25;;;;;;;113.40;68.23;;;9.40;99.80;;;;;;6275944;22;20050;-69
2023/02/19 02:58:52;;;;;;;113.70;68.97;;;9.40;99.80;;;;;;6275595;22;20004;-69
2023/02/19 03:07:45;;;;;;;119.17;70.50;;;9.40;99.80;;;;;;6276193;22;20010;-68
2023/02/19 03:10:15;;;;;;;120.20;71.83;;;9.40;99.90;;;;;;6248750;22;20368;-69
2023/02/19 03:21:08;;;;;;;119.23;69.73;;;9.30;99.90;;;;;;6276180;22;20073;-69
2023/02/19 03:26:20;;;;;;;115.27;68.13;;;9.30;99.90;;;;;;6276082;22;20019;-69
2023/02/19 03:31:36;;;;;;;115.13;69.50;;;9.30;99.90;;;;;;6276170;22;20092;-69
2023/02/19 03:34:10;;;;;;;126.13;70.50;;;9.30;99.90;;;;;;6275709;22;20069;-68
2023/02/19 03:36:51;;;;;;;116.03;66.80;;;9.40;99.90;;;;;;6276087;22;20000;-69
2023/02/19 03:39:20;;;;;;;113.83;68.90;;;9.30;99.90;;;;;;6275904;22;20441;-70
2023/02/19 03:41:58;;;;;;;125.20;70.93;;;9.30;99.90;;;;;;6276460;22;19996;-69
2023/02/19 03:44:52;;;;;;;118.73;65.80;;;9.30;99.90;;;;;;6248756;22;20011;-69
2023/02/19 03:47:29;;;;;;;116.63;67.70;;;9.30;99.90;;;;;;6276311;22;20045;-69
2023/02/19 03:50:10;;;;;;;114.83;67.13;;;9.30;99.90;;;;;;6275944;22;20369;-69
2023/02/19 03:52:54;;;;;;;118.43;66.37;;;9.30;99.90;;;;;;6276053;22;20311;-69
2023/02/19 03:55:43;;;;;;;116.10;67.07;;;9.30;99.90;;;;;;6276247;22;20003;-69
2023/02/19 03:58:53;;;;;;;119.23;69.97;;;9.30;99.90;;;;;;6248886;22;20011;-69
2023/02/19 04:01:20;;;;;;;113.90;66.13;;;9.30;99.90;;;;;;6275908;22;20008;-69
2023/02/19 04:03:53;;;;;;;116.83;67.97;;;9.30;99.90;;;;;;6276009;22;20000;-69
2023/02/19 04:06:29;;;;;;;110.53;67.53;;;9.30;99.90;;;;;;6276270;22;20441;-69
2023/02/19 04:08:59;;;;;;;114.40;66.93;;;9.30;99.90;;;;;;6277412;22;20004;-69
2023/02/19 04:11:26;;;;;;;113.60;67.63;;;9.30;99.90;;;;;;6277369;22;20003;-69
2023/02/19 04:13:58;;;;;;;118.07;69.03;;;9.30;99.90;;;;;;6277587;22;20117;-69
2023/02/19 04:16:28;;;;;;;112.72;65.32;;;9.30;99.90;;;;;;6277788;22;20544;-69
2023/02/19 04:19:01;;;;;;;114.30;67.03;;;9.30;99.90;;;;;;6250525;22;20381;-69
2023/02/19 04:21:29;;;;;;;115.40;66.53;;;9.30;99.90;;;;;;6277739;22;20007;-69
2023/02/19 04:23:58;;;;;;;109.93;64.07;;;9.30;99.90;;;;;;6277372;22;20046;-69
2023/02/19 04:26:23;;;;;;;102.80;60.50;;;9.30;99.90;;;;;;6277578;22;20502;-69
2023/02/19 04:28:49;;;;;;;104.00;61.57;;;9.30;99.90;;;;;;6277684;22;20000;-68
2023/02/19 04:31:15;;;;;;;94.50;58.83;;;9.20;99.90;;;;;;6277631;22;19999;-69
2023/02/19 04:33:40;;;;;;;96.57;58.37;;;9.30;99.90;;;;;;6277746;22;20006;-69
2023/02/19 04:36:08;;;;;;;96.37;59.97;;;9.30;99.90;;;;;;6277483;22;20010;-69
2023/02/19 04:38:34;;;;;;;95.13;59.80;;;9.30;99.90;;;;;;6277452;22;20384;-69
2023/02/19 04:41:00;;;;;;;93.40;56.97;;;9.30;99.90;;;;;;6277486;22;20000;-70
2023/02/19 04:43:25;;;;;;;91.30;56.77;;;9.30;99.90;;;;;;6277573;22;20426;-69
2023/02/19 04:45:51;;;;;;;94.43;57.73;;;9.30;99.90;;;;;;6277209;22;20338;-69
2023/02/19 04:48:17;;;;;;;95.33;58.53;;;9.30;99.90;;;;;;6277588;22;20430;-69
2023/02/19 04:50:42;;;;;;;95.37;58.97;;;9.30;99.90;;;;;;6277388;22;20070;-69
2023/02/19 04:53:08;;;;;;;98.23;60.87;;;9.30;99.90;;;;;;6277368;22;20389;-69
2023/02/19 04:55:38;;;;;;;94.70;58.47;;;9.30;99.90;;;;;;6277601;22;20076;-68
2023/02/19 04:58:04;;;;;;;95.17;58.40;;;9.30;99.90;;;;;;6277336;22;20015;-69
2023/02/19 05:00:32;;;;;;;99.27;59.57;;;9.20;99.90;;;;;;6277177;22;20012;-69
2023/02/19 05:02:59;;;;;;;97.50;59.50;;;9.20;99.90;;;;;;6277155;22;19999;-69
2023/02/19 05:05:25;;;;;;;96.37;58.30;;;9.20;99.90;;;;;;6277295;22;20307;-69
2023/02/19 05:07:50;;;;;;;90.00;55.27;;;9.20;99.90;;;;;;6250056;22;20004;-69
2023/02/19 05:10:16;;;;;;;86.90;54.97;;;9.20;99.90;;;;;;6277238;22;20022;-69
2023/02/19 05:12:42;;;;;;;84.73;54.80;;;9.20;99.90;;;;;;6277155;22;20078;-69
2023/02/19 05:15:07;;;;;;;86.00;52.37;;;9.20;99.90;;;;;;6277197;22;20007;-69
2023/02/19 05:17:33;;;;;;;87.80;57.20;;;9.20;99.90;;;;;;6277032;22;20026;-69
2023/02/19 05:19:59;;;;;;;92.17;55.87;;;9.30;99.90;;;;;;6277175;22;20003;-69
2023/02/19 05:22:25;;;;;;;89.87;54.97;;;9.30;99.90;;;;;;6277129;22;20417;-70
2023/02/19 05:24:50;;;;;;;91.33;56.73;;;9.30;99.90;;;;;;6276896;22;20008;-70
2023/02/19 05:27:16;;;;;;;87.60;54.97;;;9.30;99.90;;;;;;6277154;22;20041;-69
2023/02/19 05:29:42;;;;;;;95.37;58.67;;;9.30;99.90;;;;;;6276733;22;20000;-69
2023/02/19 05:32:07;;;;;;;92.17;55.87;;;9.30;99.90;;;;;;6277109;22;20066;-69
2023/02/19 05:34:33;;;;;;;84.47;53.37;;;9.30;99.90;;;;;;6276845;22;20000;-69
2023/02/19 05:36:59;;;;;;;88.67;54.90;;;9.30;99.90;;;;;;6249879;22;20004;-68
2023/02/19 05:39:24;;;;;;;89.30;55.63;;;9.30;99.90;;;;;;6249450;22;20011;-69
2023/02/19 05:41:50;;;;;;;89.10;54.47;;;9.30;99.90;;;;;;6276696;22;20357;-69
2023/02/19 05:44:16;;;;;;;91.83;55.43;;;9.20;99.90;;;;;;6276917;22;20440;-70
2023/02/19 05:46:42;;;;;;;84.10;52.73;;;9.20;99.90;;;;;;6249898;22;20271;-69
2023/02/19 05:49:07;;;;;;;86.03;53.30;;;9.20;99.90;;;;;;6276633;22;20000;-69
2023/02/19 05:51:33;;;;;;;90.77;55.17;;;9.20;99.90;;;;;;6276443;22;20052;-69
2023/02/19 05:53:59;;;;;;;87.67;53.17;;;9.20;99.90;;;;;;6276713;22;20004;-70
2023/02/19 05:56:34;;;;;;;89.23;53.07;;;9.20;99.90;;;;;;6276655;22;20022;-69
2023/02/19 05:59:03;;;;;;;86.33;54.23;;;9.20;99.90;;;;;;6276471;22;20397;-68
2023/02/19 06:01:29;;;;;;;91.03;55.33;;;9.20;99.90;;;;;;6276835;22;20046;-69
2023/02/19 06:03:55;;;;;;;87.50;55.03;;;9.20;99.90;;;;;;6276707;22;20365;-69
2023/02/19 06:06:21;;;;;;;86.63;54.47;;;9.20;99.90;;;;;;6276647;22;20046;-69
2023/02/19 06:08:49;;;;;;;86.70;52.40;;;9.20;99.90;;;;;;6276534;22;20422;-68
2023/02/19 06:11:16;;;;;;;88.67;54.07;;;9.10;99.60;;;;;;6276413;22;20006;-69
2023/02/19 06:13:41;;;;;;;88.63;54.13;;;9.10;99.60;;;;;;6276282;22;20003;-69
2023/02/19 06:16:07;;;;;;;89.87;55.63;;;9.10;99.70;;;;;;6276192;22;20449;-68
2023/02/19 06:18:33;;;;;;;93.93;56.07;;;9.00;99.80;;;;;;6276128;22;20007;-69
2023/02/19 06:21:01;;;;;;;94.30;58.00;;;9.00;99.90;;;;;;6276244;22;20019;-69
2023/02/19 06:23:28;;;;;;;90.97;54.97;;;9.00;99.90;;;;;;6276392;22;20057;-69
2023/02/19 06:25:53;;;;;;;93.00;56.17;;;9.00;99.90;;;;;;6276279;22;20075;-69
2023/02/19 06:28:19;;;;;;;90.73;56.70;;;9.00;99.90;;;;;;6276358;22;20019;-69
2023/02/19 06:30:45;;;;;;;87.77;55.53;;;9.00;99.90;;;;;;6275946;22;20122;-69
2023/02/19 06:33:10;;;;;;;92.03;56.10;;;9.00;99.90;;;;;;6276751;22;20000;-69
2023/02/19 06:35:36;;;;;;;90.17;57.17;;;9.00;99.90;;;;;;6276339;22;20083;-68
2023/02/19 06:38:02;;;;;;;84.60;53.10;;;9.00;99.90;;;;;;6276458;22;20431;-68
2023/02/19 06:40:28;;;;;;;90.23;53.80;;;9.10;99.90;;;;;;6276004;22;19996;-69
2023/02/19 06:42:53;;;;;;;88.70;53.83;;;9.10;99.90;;;;;;6276189;22;20330;-69
2023/02/19 06:45:19;;;;;;;88.50;53.63;;;9.00;99.80;;;;;;6249409;22;20007;-69
2023/02/19 06:47:45;;;;;;;86.07;51.97;;;9.00;99.90;;;;;;6233233;22;20019;-67
2023/02/19 06:50:11;;;;;;;89.23;53.93;;;9.00;99.90;;;;;;6215370;23;20071;-67
2023/02/19 06:52:36;;;;;;;83.70;52.60;;;9.10;99.90;;;;;;6215203;23;19996;-67
2023/02/19 06:55:02;;;;;;;78.03;48.87;;;9.10;99.90;;;;;;6215312;23;20001;-67
2023/02/19 06:57:28;;;;;;;79.63;50.37;;;9.10;99.90;;;;;;6215361;23;20092;-67
2023/02/19 06:59:54;;;;;;;82.60;48.17;;;9.10;99.90;;;;;;6215224;23;20058;-67
2023/02/19 07:02:21;;;;;;;76.20;49.57;;;9.10;99.90;;;;;;6188768;23;20493;-67
2023/02/19 07:04:46;;;;;;;77.63;49.23;;;9.10;99.90;;;;;;6214893;23;19997;-67
2023/02/19 07:07:12;;;;;;;79.03;48.93;;;9.10;99.90;;;;;;6215162;23;20004;-67
2023/02/19 07:09:38;;;;;;;78.30;46.13;;;9.10;99.90;;;;;;6215423;23;20066;-67
2023/02/19 07:12:04;;;;;;;72.60;47.70;;;9.10;99.80;;;;;;6215434;23;20025;-67
2023/02/19 07:14:30;;;;;;;75.17;46.17;;;9.10;99.80;;;;;;6214690;23;20011;-67
2023/02/19 07:16:56;;;;;;;71.83;47.27;;;9.10;99.70;;;;;;6214618;23;20012;-68
2023/02/19 07:19:21;;;;;;;79.47;48.83;;;9.10;99.80;;;;;;6215529;23;20004;-67
2023/02/19 07:21:47;;;;;;;81.47;47.80;;;9.10;99.80;;;;;;6215393;23;20431;-67
2023/02/19 07:24:13;;;;;;;72.87;47.13;;;9.10;99.80;;;;;;6215134;23;20076;-67
2023/02/19 07:26:39;;;;;;;81.13;48.67;;;9.10;99.80;;;;;;6214959;23;20008;-67
2023/02/19 07:29:05;;;;;;;71.80;47.20;;;9.10;99.80;;;;;;6215149;23;20004;-67
2023/02/19 07:31:31;;;;;;;73.83;47.30;;;9.10;99.80;;;;;;6214833;23;20482;-67
2023/02/19 07:33:56;;;;;;;75.87;49.30;;;9.10;99.90;;;;;;6215378;23;20005;-67
2023/02/19 07:36:23;;;;;;;75.47;47.70;;;9.10;99.90;;;;;;6214785;23;20383;-68
2023/02/19 07:38:54;;;;;;;78.77;48.97;;;9.10;99.90;;;;;;6214589;23;20012;-68
2023/02/19 07:41:19;;;;;;;74.57;47.37;;;9.20;99.90;;;;;;6216454;23;20364;-67
2023/02/19 07:43:45;;;;;;;74.67;46.77;;;9.20;99.90;;;;;;6217067;23;20043;-67
2023/02/19 07:46:12;;;;;;;71.90;46.30;;;9.20;99.90;;;;;;6216823;23;20024;-67
2023/02/19 07:48:40;;;;;;;73.43;47.27;;;9.20;99.80;;;;;;6213535;23;20012;-68
2023/02/19 07:51:09;;;;;;;69.83;45.33;;;9.20;99.80;;;;;;6213401;23;20431;-68
2023/02/19 07:53:35;;;;;;;77.50;47.67;;;9.30;99.90;;;;;;6214107;23;20001;-66
2023/02/19 07:56:03;;;;;;;71.30;46.30;;;9.20;99.90;;;;;;6216061;23;20068;-65
2023/02/19 07:58:29;;;;;;;74.53;47.73;;;9.30;99.90;;;;;;6216593;23;20020;-67
2023/02/19 08:00:56;;;;;;;75.77;48.33;;;9.30;99.90;;;;;;6216673;23;20020;-67
2023/02/19 08:03:22;;;;;;;73.83;49.07;;;9.30;99.90;;;;;;6216244;23;20001;-67
2023/02/19 08:05:50;;;;;;;78.23;49.73;;;9.30;99.90;;;;;;6216114;23;20024;-67
2023/02/19 08:08:16;;;;;;;76.97;51.07;;;9.30;99.90;;;;;;6216268;23;20035;-68
2023/02/19 08:13:29;;;;;;;77.40;48.73;;;9.30;99.90;;;;;;6213157;23;20023;-67
2023/02/19 08:16:01;;;;;;;73.20;48.27;;;9.30;99.90;;;;;;6215972;23;20007;-67
2023/02/19 08:18:29;;;;;;;70.03;48.40;;;9.30;99.90;;;;;;6216396;23;20016;-68
2023/02/19 08:20:55;;;;;;;73.47;48.43;;;9.30;99.90;;;;;;6216513;23;20319;-67
2023/02/19 08:23:21;;;;;;;76.17;49.47;;;9.40;99.90;;;;;;6216434;23;20058;-67
2023/02/19 08:25:48;;;;;;;78.57;49.80;;;9.40;99.80;;;;;;6216548;23;20007;-66
2023/02/19 08:28:14;;;;;;;81.50;49.70;;;9.40;99.80;;;;;;6216162;23;20051;-65
2023/02/19 08:30:43;;;;;;;77.77;49.87;;;9.40;99.70;;;;;;6216354;23;20001;-65
2023/02/19 08:33:10;;;;;;;77.03;50.13;;;9.40;99.80;;;;;;6216007;23;20005;-68
2023/02/19 08:35:36;;;;;;;79.90;49.13;;;9.40;99.80;;;;;;6216273;23;20005;-66
2023/02/19 08:38:03;;;;;;;79.00;52.03;;;9.40;99.80;;;;;;6216237;23;20009;-66
2023/02/19 08:40:29;;;;;;;72.53;48.80;;;9.40;99.80;;;;;;6216293;23;20028;-65
2023/02/19 08:43:00;;;;;;;74.73;48.77;;;9.40;99.80;;;;;;6216329;23;20000;-66
2023/02/19 08:45:26;;;;;;;77.43;49.07;;;9.40;99.80;;;;;;6216531;23;20001;-66
2023/02/19 08:47:51;;;;;;;77.60;50.73;;;9.40;99.90;;;;;;6216023;23;20020;-65
2023/02/19 08:50:17;;;;;;;76.13;50.70;;;9.40;99.70;;;;;;6216308;23;20075;-66
2023/02/19 08:52:43;;;;;;;76.53;50.23;;;9.40;99.70;;;;;;6215720;23;20055;-66
2023/02/19 08:55:09;;;;;;;74.77;50.17;;;9.50;99.70;;;;;;6215892;23;20001;-66
2023/02/19 08:57:36;;;;;;;76.53;49.60;;;9.50;99.60;;;;;;6215817;23;20067;-65
2023/02/19 09:00:04;;;;;;;74.13;48.10;;;9.50;99.70;;;;;;6216094;23;20003;-65
2023/02/19 09:02:30;;;;;;;71.13;47.37;;;9.50;99.60;;;;;;6215805;23;20036;-66
2023/02/19 09:04:55;;;;;;;72.47;47.77;;;9.50;99.60;;;;;;6216453;23;19997;-65
2023/02/19 09:07:21;;;;;;;71.47;46.40;;;9.50;99.60;;;;;;6216198;23;20338;-65
2023/02/19 09:09:48;;;;;;;64.73;44.93;;;9.50;99.50;;;;;;6215845;23;20043;-66
2023/02/19 09:12:14;;;;;;;65.77;44.83;;;9.50;99.50;;;;;;6216136;23;20005;-65
2023/02/19 09:14:40;;;;;;;69.97;45.13;;;9.50;99.40;;;;;;6215763;23;20382;-66
2023/02/19 09:17:07;;;;;;;64.87;45.33;;;9.50;99.30;;;;;;6216058;23;20012;-66
2023/02/19 09:19:33;;;;;;;67.83;43.97;;;9.50;99.30;;;;;;6216265;23;20192;-66
2023/02/19 09:21:59;;;;;;;62.70;44.27;;;9.60;99.20;;;;;;6216047;23;20004;-66
2023/02/19 09:24:25;;;;;;;67.83;44.23;;;9.60;99.20;;;;;;6216421;23;20125;-66
2023/02/19 09:26:52;;;;;;;61.13;42.10;;;9.60;99.20;;;;;;6216139;23;20008;-66
2023/02/19 09:29:18;;;;;;;64.23;43.40;;;9.60;99.20;;;;;;6216042;23;20001;-66
2023/02/19 09:31:45;;;;;;;61.43;42.13;;;9.60;99.20;;;;;;6216313;23;19996;-66
2023/02/19 09:34:11;;;;;;;60.77;43.03;;;9.60;99.10;;;;;;6212824;23;20039;-65
2023/02/19 09:36:38;;;;;;;63.83;43.40;;;9.60;99.10;;;;;;6212594;23;20131;-66
2023/02/19 09:39:06;;;;;;;58.80;42.17;;;9.60;99.00;;;;;;6214692;23;20016;-65
2023/02/19 09:41:44;;;;;;;58.53;41.80;;;9.60;99.00;;;;;;6215770;23;20008;-65
2023/02/19 09:44:12;;;;;;;55.90;39.23;;;9.70;99.00;;;;;;6215763;23;20490;-66
2023/02/19 09:46:44;;;;;;;61.20;41.33;;;9.70;98.80;;;;;;6215408;23;20012;-66
2023/02/19 09:49:22;;;;;;;63.70;41.17;;;9.70;98.70;;;;;;6215742;23;19997;-65
2023/02/19 09:51:52;;;;;;;60.80;43.63;;;9.70;98.70;;;;;;6215580;23;20327;-65
2023/02/19 09:54:27;;;;;;;63.03;42.75;;;9.70;98.60;;;;;;6215854;23;19993;-66
2023/02/19 09:56:55;;;;;;;64.95;43.95;;;9.70;98.60;;;;;;6215849;23;20000;-66
2023/02/19 09:59:24;;;;;;;66.60;46.37;;;9.70;98.60;;;;;;6212221;23;20012;-65
2023/02/19 10:01:58;;;;;;;74.03;47.63;;;9.80;98.60;;;;;;6212345;23;20000;-65
2023/02/19 10:04:24;;;;;;;75.30;50.03;;;9.70;98.60;;;;;;6212779;23;20001;-65
2023/02/19 10:06:51;;;;;;;68.13;46.37;;;9.70;98.50;;;;;;6215583;23;20012;-65
2023/02/19 10:09:22;;;;;;;70.78;49.92;;;9.80;98.50;;;;;;6215696;23;20047;-65
2023/02/19 10:11:48;;;;;;;74.53;48.93;;;9.80;98.90;;;;;;6215625;23;20000;-66
2023/02/19 10:14:28;;;;;;;69.70;47.08;;;9.70;98.60;;;;;;6215208;23;20058;-65
2023/02/19 10:16:58;;;;;;;72.23;47.50;;;9.80;98.60;;;;;;6215321;23;20004;-66
2023/02/19 10:19:23;;;;;;;70.37;47.33;;;9.70;98.60;;;;;;6215607;23;20005;-65
2023/02/19 10:21:49;;;;;;;72.13;48.87;;;9.80;98.60;;;;;;6215144;23;20023;-66
2023/02/19 10:24:23;;;;;;;70.27;47.20;;;9.80;98.60;;;;;;6215340;23;20001;-65
2023/02/19 10:26:49;;;;;;;67.73;47.03;;;9.80;98.60;;;;;;6215213;23;20026;-65
2023/02/19 10:29:15;;;;;;;70.50;47.53;;;9.80;98.50;;;;;;6214950;23;20005;-66
2023/02/19 10:31:41;;;;;;;67.32;45.55;;;9.80;98.50;;;;;;6215415;23;20027;-66
2023/02/19 10:34:19;;;;;;;74.28;45.95;;;9.80;98.50;;;;;;6215358;23;20031;-66
2023/02/19 10:36:49;;;;;;;67.53;44.83;;;9.70;98.50;;;;;;6215403;23;20004;-65
2023/02/19 10:39:20;;;;;;;68.40;46.72;;;9.80;98.80;;;;;;6215165;23;20036;-66
2023/02/19 10:41:49;;;;;;;66.70;45.60;;;9.80;98.50;;;;;;6215514;23;20071;-66
2023/02/19 10:44:20;;;;;;;75.77;47.10;;;9.80;98.60;;;;;;6215780;23;20224;-65
2023/02/19 10:46:49;;;;;;;64.50;45.47;;;9.80;98.60;;;;;;6215260;23;20013;-66
2023/02/19 10:49:18;;;;;;;65.80;44.80;;;9.80;98.60;;;;;;6215626;23;19997;-65
2023/02/19 10:51:46;;;;;;;70.53;45.93;;;9.80;98.50;;;;;;6215418;23;20363;-65
2023/02/19 10:54:15;;;;;;;63.27;43.87;;;9.90;98.50;;;;;;6215517;23;20335;-66
2023/02/19 10:56:41;;;;;;;65.13;43.13;;;9.90;98.60;;;;;;6214732;23;20008;-66
2023/02/19 10:59:27;;;;;;;68.27;44.93;;;9.90;98.60;;;;;;6214981;23;20009;-66
2023/02/19 11:02:01;;;;;;;68.60;44.42;;;9.90;98.60;;;;;;6215348;23;20070;-66
2023/02/19 11:04:32;;;;;;;66.90;45.20;;;9.90;98.60;;;;;;6215544;23;20308;-66
2023/02/19 11:07:10;;;;;;;64.50;46.63;;;9.90;98.60;;;;;;6215309;23;20327;-66
2023/02/19 11:09:44;;;;;;;62.90;43.80;;;9.90;98.60;;;;;;6215198;23;19997;-66
2023/02/19 11:12:13;;;;;;;65.67;44.53;;;9.90;98.60;;;;;;6215427;23;20005;-66
2023/02/19 11:14:43;;;;;;;66.50;44.17;;;9.90;98.50;;;;;;6215025;23;20004;-66
2023/02/19 11:17:23;;;;;;;66.88;45.33;;;9.90;98.50;;;;;;6217153;23;20004;-66
2023/02/19 11:19:55;;;;;;;66.77;45.13;;;10.00;98.70;;;;;;6216638;23;20058;-66
2023/02/19 11:22:31;;;;;;;68.07;45.13;;;10.00;98.60;;;;;;6213972;23;20004;-67
2023/02/19 11:25:05;;;;;;;66.50;45.85;;;10.00;98.60;;;;;;6214175;23;20012;-66
2023/02/19 11:27:31;;;;;;;64.77;44.40;;;10.00;98.60;;;;;;6215510;23;20047;-66
2023/02/19 11:30:29;;;;;;;67.40;44.22;;;10.00;98.60;;;;;;6216915;23;20036;-66
2023/02/19 11:32:55;;;;;;;63.47;41.97;;;10.00;98.50;;;;;;6217137;23;20027;-66
2023/02/19 11:35:24;;;;;;;64.13;42.60;;;10.00;98.50;;;;;;6216877;23;20001;-66
2023/02/19 11:37:59;;;;;;;63.40;42.90;;;10.00;98.60;;;;;;6190411;23;20017;-66
2023/02/19 11:41:00;;;;;;;75.55;48.88;;;10.00;98.60;;;;;;6216782;23;20420;-66
2023/02/19 11:43:28;;;;;;;76.23;51.13;;;10.00;98.50;;;;;;6216220;23;20474;-66
2023/02/19 11:46:24;;;;;;;70.50;49.93;;;10.00;98.50;;;;;;6215972;23;20004;-66
2023/02/19 11:49:29;;;;;;;76.20;49.90;;;10.00;98.50;;;;;;6213642;23;20027;-66
2023/02/19 11:51:57;;;;;;;74.15;50.72;;;10.00;98.50;;;;;;6197274;23;20008;-66
2023/02/19 11:54:35;;;;;;;76.03;48.60;;;10.00;98.50;;;;;;6216903;23;20001;-66
2023/02/19 11:57:12;;;;;;;70.63;48.42;;;10.00;98.50;;;;;;6216823;23;20000;-66
2023/02/19 11:59:47;;;;;;;69.57;48.80;;;10.10;98.50;;;;;;6213082;23;20065;-65
2023/02/19 12:02:21;;;;;;;78.97;49.70;;;10.10;98.60;;;;;;6213122;23;20721;-66
2023/02/19 12:05:02;;;;;;;74.10;50.93;;;10.00;98.50;;;;;;6216675;23;20012;-66
2023/02/19 12:07:46;;;;;;;77.55;51.30;;;10.10;98.50;;;;;;6216809;23;20416;-66
2023/02/19 12:10:47;;;;;;;76.13;51.33;;;10.10;98.40;;;;;;6216756;23;20008;-66
2023/02/19 12:13:51;;;;;;;73.85;51.17;;;10.10;98.50;;;;;;6095787;23;20390;-66
2023/02/19 12:16:26;;;;;;;76.22;49.83;;;10.10;98.40;;;;;;6165291;23;20005;-66
2023/02/19 12:18:55;;;;;;;74.77;49.53;;;10.10;98.40;;;;;;6216395;23;20120;-66
2023/02/19 12:21:58;;;;;;;75.83;50.07;;;10.20;98.50;;;;;;6216740;23;20114;-65
2023/02/19 12:24:49;;;;;;;78.80;52.03;;;10.20;98.50;;;;;;6213348;23;20382;-66
2023/02/19 12:27:20;;;;;;;78.38;50.85;;;10.20;98.50;;;;;;6212616;23;20008;-66
2023/02/19 12:30:08;;;;;;;73.93;49.78;;;10.20;98.50;;;;;;6214442;23;20024;-66
2023/02/19 12:32:57;;;;;;;72.43;47.13;;;10.20;98.60;;;;;;6216344;23;20486;-66
2023/02/19 12:35:46;;;;;;;70.38;48.28;;;10.20;98.50;;;;;;6216128;23;20004;-66
2023/02/19 12:38:23;;;;;;;67.25;46.83;;;10.20;98.50;;;;;;6216300;23;20016;-66
2023/02/19 12:41:30;;;;;;;70.20;47.80;;;10.30;98.50;;;;;;6216151;23;19997;-66
2023/02/19 12:44:15;;;;;;;69.07;46.58;;;10.30;98.50;;;;;;6216164;23;20431;-65
2023/02/19 12:46:50;;;;;;;68.45;45.92;;;10.20;98.40;;;;;;6215923;23;20435;-66
2023/02/19 12:49:35;;;;;;;69.65;46.75;;;10.30;98.40;;;;;;6216448;23;20467;-65
2023/02/19 12:52:09;;;;;;;76.17;46.90;;;10.30;98.40;;;;;;6216467;23;20000;-66
2023/02/19 12:54:43;;;;;;;67.38;45.65;;;10.30;98.40;;;;;;6215875;23;20099;-66
2023/02/19 12:57:14;;;;;;;77.43;47.85;;;10.30;98.30;;;;;;6215754;23;20023;-65
2023/02/19 13:00:12;;;;;;;77.55;48.72;;;10.30;98.30;;;;;;6216135;23;20031;-66
2023/02/19 13:02:54;;;;;;;72.63;48.10;;;10.30;98.30;;;;;;6215378;23;20008;-66
2023/02/19 13:05:54;;;;;;;72.40;49.03;;;10.30;98.20;;;;;;6216174;23;20001;-65
2023/02/19 13:08:38;;;;;;;73.65;46.55;;;10.30;98.10;;;;;;6215480;23;20335;-66
2023/02/19 13:11:15;;;;;;;70.28;46.10;;;10.30;98.00;;;;;;6216013;23;20420;-66
2023/02/19 13:14:13;;;;;;;58.65;42.70;;;10.30;97.90;;;;;;6216048;23;20007;-66
2023/02/19 13:16:45;;;;;;;60.63;43.38;;;10.30;97.90;;;;;;6190092;23;20067;-66
2023/02/19 13:19:13;;;;;;;65.03;44.03;;;10.30;97.90;;;;;;6215729;23;20013;-66